sensor_id;sensor_type;location;lat;lon;timestamp;P1;durP1;ratioP1;P2;durP2;ratioP2
44720;SDS011;30450;52.534;13.398;2023-06-10T00:01:26;10.65;;;5.07;;
44720;SDS011;30450;52.534;13.398;2023-06-10T00:03:53;12.65;;;4.53;;
44720;SDS011;30450;52.534;13.398;2023-06-10T00:06:19;10.85;;;5.00;;
44720;SDS011;30450;52.534;13.398;2023-06-10T00:08:47;9.53;;;5.00;;
44720;SDS011;30450;52.534;13.398;2023-06-10T00:11:12;12.40;;;5.28;;
44720;SDS011;30450;52.534;13.398;2023-06-10T00:13:39;12.50;;;5.10;;
44720;SDS011;30450;52.534;13.398;2023-06-10T00:16:05;12.88;;;4.50;;
44720;SDS011;30450;52.534;13.398;2023-06-10T00:18:31;9.70;;;5.25;;
44720;SDS011;30450;52.534;13.398;2023-06-10T00:20:57;9.68;;;4.15;;
44720;SDS011;30450;52.534;13.398;2023-06-10T00:23:28;11.20;;;4.90;;
44720;SDS011;30450;52.534;13.398;2023-06-10T00:28:21;12.30;;;4.80;;
44720;SDS011;30450;52.534;13.398;2023-06-10T00:30:47;10.73;;;4.25;;
44720;SDS011;30450;52.534;13.398;2023-06-10T00:33:13;8.45;;;4.55;;
44720;SDS011;30450;52.534;13.398;2023-06-10T00:35:39;10.82;;;4.90;;
44720;SDS011;30450;52.534;13.398;2023-06-10T00:38:05;11.13;;;4.55;;
44720;SDS011;30450;52.534;13.398;2023-06-10T00:40:33;7.80;;;4.90;;
44720;SDS011;30450;52.534;13.398;2023-06-10T00:45:25;10.07;;;4.78;;
44720;SDS011;30450;52.534;13.398;2023-06-10T00:47:50;10.30;;;4.97;;
44720;SDS011;30450;52.534;13.398;2023-06-10T00:50:16;11.80;;;5.18;;
44720;SDS011;30450;52.534;13.398;2023-06-10T00:52:41;13.95;;;5.35;;
44720;SDS011;30450;52.534;13.398;2023-06-10T00:55:09;12.50;;;4.53;;
44720;SDS011;30450;52.534;13.398;2023-06-10T00:57:35;13.20;;;5.00;;
44720;SDS011;30450;52.534;13.398;2023-06-10T01:00:01;10.27;;;4.60;;
44720;SDS011;30450;52.534;13.398;2023-06-10T01:02:28;9.90;;;4.57;;
44720;SDS011;30450;52.534;13.398;2023-06-10T01:04:54;10.43;;;4.55;;
44720;SDS011;30450;52.534;13.398;2023-06-10T01:07:28;12.15;;;4.55;;
44720;SDS011;30450;52.534;13.398;2023-06-10T01:12:27;11.55;;;4.32;;
44720;SDS011;30450;52.534;13.398;2023-06-10T01:14:54;11.68;;;4.60;;
44720;SDS011;30450;52.534;13.398;2023-06-10T01:17:20;11.43;;;4.38;;
44720;SDS011;30450;52.534;13.398;2023-06-10T01:19:53;15.20;;;6.03;;
44720;SDS011;30450;52.534;13.398;2023-06-10T01:22:20;11.70;;;5.20;;
44720;SDS011;30450;52.534;13.398;2023-06-10T01:24:48;10.30;;;5.13;;
44720;SDS011;30450;52.534;13.398;2023-06-10T01:27:16;9.75;;;4.70;;
44720;SDS011;30450;52.534;13.398;2023-06-10T01:29:50;9.60;;;5.05;;
44720;SDS011;30450;52.534;13.398;2023-06-10T01:32:21;17.00;;;5.32;;
44720;SDS011;30450;52.534;13.398;2023-06-10T01:34:48;9.45;;;4.60;;
44720;SDS011;30450;52.534;13.398;2023-06-10T01:37:15;11.48;;;4.15;;
44720;SDS011;30450;52.534;13.398;2023-06-10T01:39:45;10.43;;;4.43;;
44720;SDS011;30450;52.534;13.398;2023-06-10T01:42:11;10.23;;;5.07;;
44720;SDS011;30450;52.534;13.398;2023-06-10T01:44:38;12.68;;;5.57;;
44720;SDS011;30450;52.534;13.398;2023-06-10T01:47:04;10.45;;;4.65;;
44720;SDS011;30450;52.534;13.398;2023-06-10T01:49:29;11.98;;;4.30;;
44720;SDS011;30450;52.534;13.398;2023-06-10T01:51:55;12.00;;;4.80;;
44720;SDS011;30450;52.534;13.398;2023-06-10T01:54:21;10.60;;;3.78;;
44720;SDS011;30450;52.534;13.398;2023-06-10T01:56:46;14.23;;;5.05;;
44720;SDS011;30450;52.534;13.398;2023-06-10T01:59:12;11.30;;;4.85;;
44720;SDS011;30450;52.534;13.398;2023-06-10T02:01:37;12.60;;;4.93;;
44720;SDS011;30450;52.534;13.398;2023-06-10T02:04:03;7.28;;;4.13;;
44720;SDS011;30450;52.534;13.398;2023-06-10T02:06:29;9.20;;;5.05;;
44720;SDS011;30450;52.534;13.398;2023-06-10T02:08:55;10.90;;;4.28;;
44720;SDS011;30450;52.534;13.398;2023-06-10T02:11:21;11.50;;;5.03;;
44720;SDS011;30450;52.534;13.398;2023-06-10T02:13:47;16.45;;;6.60;;
44720;SDS011;30450;52.534;13.398;2023-06-10T02:16:13;8.30;;;4.32;;
44720;SDS011;30450;52.534;13.398;2023-06-10T02:18:42;13.38;;;5.15;;
44720;SDS011;30450;52.534;13.398;2023-06-10T02:21:08;12.60;;;4.57;;
44720;SDS011;30450;52.534;13.398;2023-06-10T02:23:34;15.98;;;5.00;;
44720;SDS011;30450;52.534;13.398;2023-06-10T02:26:00;8.70;;;4.57;;
44720;SDS011;30450;52.534;13.398;2023-06-10T02:28:26;8.18;;;5.03;;
44720;SDS011;30450;52.534;13.398;2023-06-10T02:30:51;9.77;;;4.93;;
44720;SDS011;30450;52.534;13.398;2023-06-10T02:33:17;16.15;;;5.57;;
44720;SDS011;30450;52.534;13.398;2023-06-10T02:35:44;11.95;;;4.97;;
44720;SDS011;30450;52.534;13.398;2023-06-10T02:38:10;9.77;;;5.40;;
44720;SDS011;30450;52.534;13.398;2023-06-10T02:40:35;9.77;;;4.95;;
44720;SDS011;30450;52.534;13.398;2023-06-10T02:43:01;14.75;;;5.97;;
44720;SDS011;30450;52.534;13.398;2023-06-10T02:45:27;14.82;;;5.53;;
44720;SDS011;30450;52.534;13.398;2023-06-10T02:47:53;13.30;;;4.68;;
44720;SDS011;30450;52.534;13.398;2023-06-10T02:50:18;9.75;;;4.68;;
44720;SDS011;30450;52.534;13.398;2023-06-10T02:52:44;10.43;;;5.03;;
44720;SDS011;30450;52.534;13.398;2023-06-10T02:55:10;9.07;;;5.07;;
44720;SDS011;30450;52.534;13.398;2023-06-10T02:57:36;14.13;;;5.57;;
44720;SDS011;30450;52.534;13.398;2023-06-10T03:00:02;12.65;;;5.10;;
44720;SDS011;30450;52.534;13.398;2023-06-10T03:02:29;11.60;;;5.18;;
44720;SDS011;30450;52.534;13.398;2023-06-10T03:04:57;8.77;;;4.13;;
44720;SDS011;30450;52.534;13.398;2023-06-10T03:07:23;12.27;;;5.47;;
44720;SDS011;30450;52.534;13.398;2023-06-10T03:09:50;10.32;;;4.30;;
44720;SDS011;30450;52.534;13.398;2023-06-10T03:12:15;7.80;;;4.28;;
44720;SDS011;30450;52.534;13.398;2023-06-10T03:14:41;11.95;;;5.60;;
44720;SDS011;30450;52.534;13.398;2023-06-10T03:17:07;16.98;;;5.10;;
44720;SDS011;30450;52.534;13.398;2023-06-10T03:19:34;13.68;;;5.80;;
44720;SDS011;30450;52.534;13.398;2023-06-10T03:22:07;11.10;;;4.93;;
44720;SDS011;30450;52.534;13.398;2023-06-10T03:24:33;10.48;;;5.05;;
44720;SDS011;30450;52.534;13.398;2023-06-10T03:26:59;10.35;;;5.20;;
44720;SDS011;30450;52.534;13.398;2023-06-10T03:29:26;11.07;;;5.63;;
44720;SDS011;30450;52.534;13.398;2023-06-10T03:31:51;10.15;;;4.82;;
44720;SDS011;30450;52.534;13.398;2023-06-10T03:34:17;16.05;;;5.55;;
44720;SDS011;30450;52.534;13.398;2023-06-10T03:36:43;13.15;;;5.88;;
44720;SDS011;30450;52.534;13.398;2023-06-10T03:39:09;15.20;;;5.90;;
44720;SDS011;30450;52.534;13.398;2023-06-10T03:41:34;11.18;;;5.07;;
44720;SDS011;30450;52.534;13.398;2023-06-10T03:44:00;12.68;;;6.10;;
44720;SDS011;30450;52.534;13.398;2023-06-10T03:46:26;13.13;;;5.15;;
44720;SDS011;30450;52.534;13.398;2023-06-10T03:48:52;10.85;;;4.95;;
44720;SDS011;30450;52.534;13.398;2023-06-10T03:51:17;16.67;;;5.65;;
44720;SDS011;30450;52.534;13.398;2023-06-10T03:53:43;11.65;;;5.03;;
44720;SDS011;30450;52.534;13.398;2023-06-10T03:56:09;8.57;;;4.38;;
44720;SDS011;30450;52.534;13.398;2023-06-10T03:58:35;10.65;;;5.70;;
44720;SDS011;30450;52.534;13.398;2023-06-10T04:01:00;14.15;;;5.88;;
44720;SDS011;30450;52.534;13.398;2023-06-10T04:03:27;10.73;;;5.15;;
44720;SDS011;30450;52.534;13.398;2023-06-10T04:05:52;11.73;;;5.40;;
44720;SDS011;30450;52.534;13.398;2023-06-10T04:08:18;12.20;;;5.80;;
44720;SDS011;30450;52.534;13.398;2023-06-10T04:10:44;11.98;;;5.55;;
44720;SDS011;30450;52.534;13.398;2023-06-10T04:13:09;12.85;;;5.18;;
44720;SDS011;30450;52.534;13.398;2023-06-10T04:15:35;9.40;;;5.15;;
44720;SDS011;30450;52.534;13.398;2023-06-10T04:18:02;14.93;;;6.00;;
44720;SDS011;30450;52.534;13.398;2023-06-10T04:20:27;12.50;;;5.40;;
44720;SDS011;30450;52.534;13.398;2023-06-10T04:22:54;11.07;;;5.63;;
44720;SDS011;30450;52.534;13.398;2023-06-10T04:25:19;14.15;;;5.97;;
44720;SDS011;30450;52.534;13.398;2023-06-10T04:27:45;10.02;;;5.50;;
44720;SDS011;30450;52.534;13.398;2023-06-10T04:30:11;14.55;;;5.80;;
44720;SDS011;30450;52.534;13.398;2023-06-10T04:32:37;13.85;;;5.43;;
44720;SDS011;30450;52.534;13.398;2023-06-10T04:35:04;10.68;;;4.68;;
44720;SDS011;30450;52.534;13.398;2023-06-10T04:37:30;16.15;;;5.13;;
44720;SDS011;30450;52.534;13.398;2023-06-10T04:39:56;7.75;;;5.30;;
44720;SDS011;30450;52.534;13.398;2023-06-10T04:42:22;10.70;;;5.53;;
44720;SDS011;30450;52.534;13.398;2023-06-10T04:44:48;9.13;;;5.50;;
44720;SDS011;30450;52.534;13.398;2023-06-10T04:47:14;11.32;;;5.85;;
44720;SDS011;30450;52.534;13.398;2023-06-10T04:49:39;22.10;;;6.10;;
44720;SDS011;30450;52.534;13.398;2023-06-10T04:52:05;18.88;;;5.97;;
44720;SDS011;30450;52.534;13.398;2023-06-10T04:54:31;11.95;;;5.88;;
44720;SDS011;30450;52.534;13.398;2023-06-10T04:56:58;16.35;;;6.18;;
44720;SDS011;30450;52.534;13.398;2023-06-10T04:59:23;11.00;;;5.47;;
44720;SDS011;30450;52.534;13.398;2023-06-10T05:01:50;13.88;;;6.05;;
44720;SDS011;30450;52.534;13.398;2023-06-10T05:04:16;12.50;;;6.25;;
44720;SDS011;30450;52.534;13.398;2023-06-10T05:06:41;12.38;;;6.50;;
44720;SDS011;30450;52.534;13.398;2023-06-10T05:09:07;10.35;;;5.82;;
44720;SDS011;30450;52.534;13.398;2023-06-10T05:11:33;13.30;;;6.00;;
44720;SDS011;30450;52.534;13.398;2023-06-10T05:13:59;10.65;;;5.50;;
44720;SDS011;30450;52.534;13.398;2023-06-10T05:16:25;11.98;;;5.95;;
44720;SDS011;30450;52.534;13.398;2023-06-10T05:18:51;14.85;;;6.10;;
44720;SDS011;30450;52.534;13.398;2023-06-10T05:21:17;10.60;;;5.47;;
44720;SDS011;30450;52.534;13.398;2023-06-10T05:23:43;13.80;;;5.47;;
44720;SDS011;30450;52.534;13.398;2023-06-10T05:26:09;9.23;;;6.18;;
44720;SDS011;30450;52.534;13.398;2023-06-10T05:28:36;14.90;;;7.05;;
44720;SDS011;30450;52.534;13.398;2023-06-10T05:31:02;14.13;;;6.57;;
44720;SDS011;30450;52.534;13.398;2023-06-10T05:33:28;11.35;;;6.22;;
44720;SDS011;30450;52.534;13.398;2023-06-10T05:35:53;9.65;;;6.28;;
44720;SDS011;30450;52.534;13.398;2023-06-10T05:38:19;10.57;;;6.03;;
44720;SDS011;30450;52.534;13.398;2023-06-10T05:40:45;12.55;;;5.63;;
44720;SDS011;30450;52.534;13.398;2023-06-10T05:43:11;14.48;;;6.65;;
44720;SDS011;30450;52.534;13.398;2023-06-10T05:45:37;12.70;;;6.82;;
44720;SDS011;30450;52.534;13.398;2023-06-10T05:48:03;13.27;;;6.57;;
44720;SDS011;30450;52.534;13.398;2023-06-10T05:50:29;10.10;;;5.63;;
44720;SDS011;30450;52.534;13.398;2023-06-10T05:52:55;9.45;;;6.70;;
44720;SDS011;30450;52.534;13.398;2023-06-10T05:55:20;18.70;;;6.60;;
44720;SDS011;30450;52.534;13.398;2023-06-10T05:57:46;10.90;;;5.93;;
44720;SDS011;30450;52.534;13.398;2023-06-10T06:00:13;13.40;;;6.88;;
44720;SDS011;30450;52.534;13.398;2023-06-10T06:02:38;15.68;;;6.78;;
44720;SDS011;30450;52.534;13.398;2023-06-10T06:05:04;15.05;;;6.07;;
44720;SDS011;30450;52.534;13.398;2023-06-10T06:07:30;10.52;;;6.57;;
44720;SDS011;30450;52.534;13.398;2023-06-10T06:09:56;18.88;;;6.65;;
44720;SDS011;30450;52.534;13.398;2023-06-10T06:12:21;11.68;;;6.88;;
44720;SDS011;30450;52.534;13.398;2023-06-10T06:14:47;10.52;;;6.25;;
44720;SDS011;30450;52.534;13.398;2023-06-10T06:17:14;12.45;;;6.70;;
44720;SDS011;30450;52.534;13.398;2023-06-10T06:19:40;13.85;;;6.07;;
44720;SDS011;30450;52.534;13.398;2023-06-10T06:22:05;10.98;;;6.55;;
44720;SDS011;30450;52.534;13.398;2023-06-10T06:24:31;8.13;;;5.47;;
44720;SDS011;30450;52.534;13.398;2023-06-10T06:26:57;9.35;;;6.20;;
44720;SDS011;30450;52.534;13.398;2023-06-10T06:29:23;11.23;;;5.90;;
44720;SDS011;30450;52.534;13.398;2023-06-10T06:31:48;10.85;;;5.88;;
44720;SDS011;30450;52.534;13.398;2023-06-10T06:34:14;13.15;;;6.15;;
44720;SDS011;30450;52.534;13.398;2023-06-10T06:36:40;13.48;;;6.38;;
44720;SDS011;30450;52.534;13.398;2023-06-10T06:39:06;10.65;;;6.07;;
44720;SDS011;30450;52.534;13.398;2023-06-10T06:41:32;12.45;;;6.78;;
44720;SDS011;30450;52.534;13.398;2023-06-10T06:43:58;13.45;;;6.07;;
44720;SDS011;30450;52.534;13.398;2023-06-10T06:46:23;15.50;;;6.35;;
44720;SDS011;30450;52.534;13.398;2023-06-10T06:48:49;11.82;;;6.13;;
44720;SDS011;30450;52.534;13.398;2023-06-10T06:51:15;11.75;;;7.03;;
44720;SDS011;30450;52.534;13.398;2023-06-10T06:53:41;12.48;;;6.43;;
44720;SDS011;30450;52.534;13.398;2023-06-10T06:56:10;9.88;;;5.97;;
44720;SDS011;30450;52.534;13.398;2023-06-10T06:58:35;10.75;;;6.60;;
44720;SDS011;30450;52.534;13.398;2023-06-10T07:01:01;13.73;;;6.53;;
44720;SDS011;30450;52.534;13.398;2023-06-10T07:03:27;11.50;;;6.75;;
44720;SDS011;30450;52.534;13.398;2023-06-10T07:05:53;16.95;;;10.43;;
44720;SDS011;30450;52.534;13.398;2023-06-10T07:08:18;15.23;;;6.90;;
44720;SDS011;30450;52.534;13.398;2023-06-10T07:10:44;10.15;;;6.45;;
44720;SDS011;30450;52.534;13.398;2023-06-10T07:13:10;13.10;;;7.32;;
44720;SDS011;30450;52.534;13.398;2023-06-10T07:15:36;9.93;;;6.85;;
44720;SDS011;30450;52.534;13.398;2023-06-10T07:18:02;12.15;;;6.00;;
44720;SDS011;30450;52.534;13.398;2023-06-10T07:20:27;10.68;;;6.70;;
44720;SDS011;30450;52.534;13.398;2023-06-10T07:22:53;9.75;;;6.68;;
44720;SDS011;30450;52.534;13.398;2023-06-10T07:25:19;16.63;;;6.63;;
44720;SDS011;30450;52.534;13.398;2023-06-10T07:27:45;9.57;;;6.65;;
44720;SDS011;30450;52.534;13.398;2023-06-10T07:30:10;8.80;;;6.60;;
44720;SDS011;30450;52.534;13.398;2023-06-10T07:32:36;12.70;;;6.75;;
44720;SDS011;30450;52.534;13.398;2023-06-10T07:35:02;12.65;;;6.55;;
44720;SDS011;30450;52.534;13.398;2023-06-10T07:37:27;9.18;;;6.55;;
44720;SDS011;30450;52.534;13.398;2023-06-10T07:39:53;13.52;;;6.18;;
44720;SDS011;30450;52.534;13.398;2023-06-10T07:42:19;14.45;;;6.35;;
44720;SDS011;30450;52.534;13.398;2023-06-10T07:44:45;14.80;;;6.80;;
44720;SDS011;30450;52.534;13.398;2023-06-10T07:47:10;9.38;;;6.10;;
44720;SDS011;30450;52.534;13.398;2023-06-10T07:49:36;7.22;;;6.28;;
44720;SDS011;30450;52.534;13.398;2023-06-10T07:52:02;11.18;;;6.93;;
44720;SDS011;30450;52.534;13.398;2023-06-10T07:54:27;8.80;;;6.22;;
44720;SDS011;30450;52.534;13.398;2023-06-10T07:56:53;11.90;;;6.05;;
44720;SDS011;30450;52.534;13.398;2023-06-10T07:59:19;10.25;;;6.65;;
44720;SDS011;30450;52.534;13.398;2023-06-10T08:01:45;13.52;;;6.45;;
44720;SDS011;30450;52.534;13.398;2023-06-10T08:04:11;11.73;;;7.20;;
44720;SDS011;30450;52.534;13.398;2023-06-10T08:06:37;15.50;;;6.82;;
44720;SDS011;30450;52.534;13.398;2023-06-10T08:09:03;10.68;;;8.23;;
44720;SDS011;30450;52.534;13.398;2023-06-10T08:11:29;10.57;;;7.55;;
44720;SDS011;30450;52.534;13.398;2023-06-10T08:13:55;11.30;;;6.88;;
44720;SDS011;30450;52.534;13.398;2023-06-10T08:16:21;7.03;;;6.35;;
44720;SDS011;30450;52.534;13.398;2023-06-10T08:18:47;17.08;;;6.45;;
44720;SDS011;30450;52.534;13.398;2023-06-10T08:21:12;14.48;;;7.18;;
44720;SDS011;30450;52.534;13.398;2023-06-10T08:23:38;9.75;;;5.82;;
44720;SDS011;30450;52.534;13.398;2023-06-10T08:26:04;9.48;;;6.97;;
44720;SDS011;30450;52.534;13.398;2023-06-10T08:28:30;8.02;;;6.45;;
44720;SDS011;30450;52.534;13.398;2023-06-10T08:30:55;15.10;;;7.18;;
44720;SDS011;30450;52.534;13.398;2023-06-10T08:33:21;9.13;;;6.28;;
44720;SDS011;30450;52.534;13.398;2023-06-10T08:35:46;11.77;;;7.07;;
44720;SDS011;30450;52.534;13.398;2023-06-10T08:38:12;9.85;;;6.60;;
44720;SDS011;30450;52.534;13.398;2023-06-10T08:40:38;7.50;;;6.00;;
44720;SDS011;30450;52.534;13.398;2023-06-10T08:43:07;9.57;;;6.85;;
44720;SDS011;30450;52.534;13.398;2023-06-10T08:45:36;7.80;;;6.20;;
44720;SDS011;30450;52.534;13.398;2023-06-10T08:48:03;15.18;;;7.03;;
44720;SDS011;30450;52.534;13.398;2023-06-10T08:50:35;15.73;;;6.93;;
44720;SDS011;30450;52.534;13.398;2023-06-10T08:53:02;9.95;;;6.85;;
44720;SDS011;30450;52.534;13.398;2023-06-10T08:55:30;11.95;;;5.95;;
44720;SDS011;30450;52.534;13.398;2023-06-10T08:57:58;10.02;;;6.25;;
44720;SDS011;30450;52.534;13.398;2023-06-10T09:00:24;9.32;;;6.07;;
44720;SDS011;30450;52.534;13.398;2023-06-10T09:02:50;14.63;;;6.28;;
44720;SDS011;30450;52.534;13.398;2023-06-10T09:05:16;8.88;;;6.57;;
44720;SDS011;30450;52.534;13.398;2023-06-10T09:07:42;9.82;;;6.18;;
44720;SDS011;30450;52.534;13.398;2023-06-10T09:10:08;9.20;;;7.05;;
44720;SDS011;30450;52.534;13.398;2023-06-10T09:12:34;14.25;;;7.20;;
44720;SDS011;30450;52.534;13.398;2023-06-10T09:15:01;14.05;;;6.30;;
44720;SDS011;30450;52.534;13.398;2023-06-10T09:17:27;10.98;;;6.32;;
44720;SDS011;30450;52.534;13.398;2023-06-10T09:19:53;13.32;;;6.60;;
44720;SDS011;30450;52.534;13.398;2023-06-10T09:24:46;9.98;;;6.28;;
44720;SDS011;30450;52.534;13.398;2023-06-10T09:27:12;11.00;;;6.60;;
44720;SDS011;30450;52.534;13.398;2023-06-10T09:29:47;10.90;;;5.72;;
44720;SDS011;30450;52.534;13.398;2023-06-10T09:32:13;11.18;;;6.63;;
44720;SDS011;30450;52.534;13.398;2023-06-10T09:34:39;12.95;;;6.93;;
44720;SDS011;30450;52.534;13.398;2023-06-10T09:37:05;13.70;;;6.35;;
44720;SDS011;30450;52.534;13.398;2023-06-10T09:39:32;12.55;;;6.30;;
44720;SDS011;30450;52.534;13.398;2023-06-10T09:41:57;14.60;;;7.15;;
44720;SDS011;30450;52.534;13.398;2023-06-10T09:44:23;13.90;;;7.03;;
44720;SDS011;30450;52.534;13.398;2023-06-10T09:49:17;15.98;;;7.18;;
44720;SDS011;30450;52.534;13.398;2023-06-10T09:51:51;12.07;;;6.85;;
44720;SDS011;30450;52.534;13.398;2023-06-10T09:54:18;13.68;;;6.88;;
44720;SDS011;30450;52.534;13.398;2023-06-10T09:56:46;14.57;;;7.88;;
44720;SDS011;30450;52.534;13.398;2023-06-10T09:59:12;18.63;;;7.22;;
44720;SDS011;30450;52.534;13.398;2023-06-10T10:01:37;11.02;;;7.18;;
44720;SDS011;30450;52.534;13.398;2023-06-10T10:04:03;13.15;;;9.75;;
44720;SDS011;30450;52.534;13.398;2023-06-10T10:06:29;14.15;;;12.75;;
44720;SDS011;30450;52.534;13.398;2023-06-10T10:08:56;10.40;;;8.43;;
44720;SDS011;30450;52.534;13.398;2023-06-10T10:11:22;12.85;;;8.13;;
44720;SDS011;30450;52.534;13.398;2023-06-10T10:13:49;13.35;;;7.15;;
44720;SDS011;30450;52.534;13.398;2023-06-10T10:16:16;14.30;;;7.25;;
44720;SDS011;30450;52.534;13.398;2023-06-10T10:21:11;12.80;;;6.97;;
44720;SDS011;30450;52.534;13.398;2023-06-10T10:23:42;20.27;;;7.88;;
44720;SDS011;30450;52.534;13.398;2023-06-10T10:26:09;10.90;;;6.45;;
44720;SDS011;30450;52.534;13.398;2023-06-10T10:28:44;13.00;;;6.25;;
44720;SDS011;30450;52.534;13.398;2023-06-10T10:31:10;7.80;;;5.63;;
44720;SDS011;30450;52.534;13.398;2023-06-10T10:33:49;14.70;;;7.30;;
44720;SDS011;30450;52.534;13.398;2023-06-10T10:36:16;8.73;;;5.65;;
44720;SDS011;30450;52.534;13.398;2023-06-10T10:38:44;6.47;;;4.40;;
44720;SDS011;30450;52.534;13.398;2023-06-10T10:41:11;5.57;;;4.63;;
44720;SDS011;30450;52.534;13.398;2023-06-10T10:43:37;9.35;;;4.55;;
44720;SDS011;30450;52.534;13.398;2023-06-10T10:46:08;12.52;;;5.10;;
44720;SDS011;30450;52.534;13.398;2023-06-10T10:48:35;7.97;;;5.03;;
44720;SDS011;30450;52.534;13.398;2023-06-10T10:51:02;7.63;;;4.35;;
44720;SDS011;30450;52.534;13.398;2023-06-10T10:53:28;7.07;;;4.68;;
44720;SDS011;30450;52.534;13.398;2023-06-10T10:56:06;7.38;;;4.50;;
44720;SDS011;30450;52.534;13.398;2023-06-10T10:58:34;6.65;;;4.22;;
44720;SDS011;30450;52.534;13.398;2023-06-10T11:01:09;5.20;;;4.50;;
44720;SDS011;30450;52.534;13.398;2023-06-10T11:03:35;8.23;;;4.93;;
44720;SDS011;30450;52.534;13.398;2023-06-10T11:06:07;8.02;;;4.65;;
44720;SDS011;30450;52.534;13.398;2023-06-10T11:13:57;5.40;;;4.72;;
44720;SDS011;30450;52.534;13.398;2023-06-10T11:16:23;5.28;;;4.78;;
44720;SDS011;30450;52.534;13.398;2023-06-10T11:18:53;5.78;;;4.80;;
44720;SDS011;30450;52.534;13.398;2023-06-10T11:21:19;11.55;;;5.55;;
44720;SDS011;30450;52.534;13.398;2023-06-10T11:23:45;4.90;;;4.47;;
44720;SDS011;30450;52.534;13.398;2023-06-10T11:26:14;7.43;;;4.72;;
44720;SDS011;30450;52.534;13.398;2023-06-10T11:28:41;7.90;;;5.18;;
44720;SDS011;30450;52.534;13.398;2023-06-10T11:31:07;9.13;;;4.80;;
44720;SDS011;30450;52.534;13.398;2023-06-10T11:33:32;8.07;;;4.75;;
44720;SDS011;30450;52.534;13.398;2023-06-10T11:35:58;7.20;;;5.00;;
44720;SDS011;30450;52.534;13.398;2023-06-10T11:38:24;5.38;;;4.03;;
44720;SDS011;30450;52.534;13.398;2023-06-10T11:40:51;4.85;;;4.13;;
44720;SDS011;30450;52.534;13.398;2023-06-10T11:43:16;5.28;;;4.50;;
44720;SDS011;30450;52.534;13.398;2023-06-10T11:45:42;11.35;;;5.60;;
44720;SDS011;30450;52.534;13.398;2023-06-10T11:48:08;5.95;;;4.90;;
44720;SDS011;30450;52.534;13.398;2023-06-10T11:50:34;6.30;;;5.47;;
44720;SDS011;30450;52.534;13.398;2023-06-10T11:53:00;8.93;;;6.15;;
44720;SDS011;30450;52.534;13.398;2023-06-10T11:55:40;11.15;;;6.55;;
44720;SDS011;30450;52.534;13.398;2023-06-10T11:58:16;6.97;;;6.22;;
44720;SDS011;30450;52.534;13.398;2023-06-10T12:03:10;12.27;;;6.95;;
44720;SDS011;30450;52.534;13.398;2023-06-10T12:05:36;7.25;;;6.47;;
44720;SDS011;30450;52.534;13.398;2023-06-10T12:08:09;8.40;;;6.22;;
44720;SDS011;30450;52.534;13.398;2023-06-10T12:10:42;7.95;;;5.97;;
44720;SDS011;30450;52.534;13.398;2023-06-10T12:13:08;7.45;;;6.07;;
44720;SDS011;30450;52.534;13.398;2023-06-10T12:15:35;8.18;;;6.05;;
44720;SDS011;30450;52.534;13.398;2023-06-10T12:18:01;6.20;;;5.63;;
44720;SDS011;30450;52.534;13.398;2023-06-10T12:20:28;7.03;;;5.53;;
44720;SDS011;30450;52.534;13.398;2023-06-10T12:22:53;7.10;;;5.45;;
44720;SDS011;30450;52.534;13.398;2023-06-10T12:25:24;5.35;;;4.60;;
44720;SDS011;30450;52.534;13.398;2023-06-10T12:27:51;6.85;;;4.95;;
44720;SDS011;30450;52.534;13.398;2023-06-10T12:30:22;6.40;;;4.63;;
44720;SDS011;30450;52.534;13.398;2023-06-10T12:32:47;6.80;;;4.57;;
44720;SDS011;30450;52.534;13.398;2023-06-10T12:35:16;13.68;;;5.45;;
44720;SDS011;30450;52.534;13.398;2023-06-10T12:37:42;5.32;;;4.82;;
44720;SDS011;30450;52.534;13.398;2023-06-10T12:40:08;5.28;;;4.78;;
44720;SDS011;30450;52.534;13.398;2023-06-10T12:42:37;5.40;;;4.75;;
44720;SDS011;30450;52.534;13.398;2023-06-10T12:45:03;5.88;;;5.38;;
44720;SDS011;30450;52.534;13.398;2023-06-10T12:47:30;9.73;;;6.20;;
44720;SDS011;30450;52.534;13.398;2023-06-10T12:49:57;9.55;;;7.20;;
44720;SDS011;30450;52.534;13.398;2023-06-10T12:52:24;6.88;;;6.18;;
44720;SDS011;30450;52.534;13.398;2023-06-10T12:54:49;8.40;;;6.38;;
44720;SDS011;30450;52.534;13.398;2023-06-10T12:57:15;8.43;;;7.10;;
44720;SDS011;30450;52.534;13.398;2023-06-10T12:59:42;9.43;;;6.83;;
44720;SDS011;30450;52.534;13.398;2023-06-10T13:02:15;9.85;;;6.97;;
44720;SDS011;30450;52.534;13.398;2023-06-10T13:04:43;10.60;;;7.63;;
44720;SDS011;30450;52.534;13.398;2023-06-10T13:07:08;8.55;;;7.72;;
44720;SDS011;30450;52.534;13.398;2023-06-10T13:09:36;7.53;;;6.70;;
44720;SDS011;30450;52.534;13.398;2023-06-10T13:12:02;9.38;;;7.63;;
44720;SDS011;30450;52.534;13.398;2023-06-10T13:14:28;11.85;;;7.50;;
44720;SDS011;30450;52.534;13.398;2023-06-10T13:16:54;10.93;;;7.35;;
44720;SDS011;30450;52.534;13.398;2023-06-10T13:19:20;9.15;;;7.68;;
44720;SDS011;30450;52.534;13.398;2023-06-10T13:21:47;10.90;;;7.30;;
44720;SDS011;30450;52.534;13.398;2023-06-10T13:24:13;10.70;;;7.20;;
44720;SDS011;30450;52.534;13.398;2023-06-10T13:26:39;7.40;;;6.63;;
44720;SDS011;30450;52.534;13.398;2023-06-10T13:29:05;11.02;;;7.57;;
44720;SDS011;30450;52.534;13.398;2023-06-10T13:31:31;12.18;;;6.88;;
44720;SDS011;30450;52.534;13.398;2023-06-10T13:33:58;9.30;;;6.72;;
44720;SDS011;30450;52.534;13.398;2023-06-10T13:36:24;10.75;;;7.22;;
44720;SDS011;30450;52.534;13.398;2023-06-10T13:38:50;8.38;;;7.13;;
44720;SDS011;30450;52.534;13.398;2023-06-10T13:41:16;9.63;;;7.47;;
44720;SDS011;30450;52.534;13.398;2023-06-10T13:43:41;7.65;;;6.57;;
44720;SDS011;30450;52.534;13.398;2023-06-10T13:46:07;9.13;;;6.78;;
44720;SDS011;30450;52.534;13.398;2023-06-10T13:48:33;10.07;;;7.72;;
44720;SDS011;30450;52.534;13.398;2023-06-10T13:50:59;10.32;;;6.57;;
44720;SDS011;30450;52.534;13.398;2023-06-10T13:53:25;8.00;;;6.80;;
44720;SDS011;30450;52.534;13.398;2023-06-10T13:55:51;9.80;;;5.95;;
44720;SDS011;30450;52.534;13.398;2023-06-10T13:58:17;10.50;;;6.50;;
44720;SDS011;30450;52.534;13.398;2023-06-10T14:00:43;10.65;;;6.40;;
44720;SDS011;30450;52.534;13.398;2023-06-10T14:03:09;10.73;;;6.22;;
44720;SDS011;30450;52.534;13.398;2023-06-10T14:05:34;12.45;;;6.45;;
44720;SDS011;30450;52.534;13.398;2023-06-10T14:08:00;8.10;;;5.97;;
44720;SDS011;30450;52.534;13.398;2023-06-10T14:10:26;8.82;;;6.18;;
44720;SDS011;30450;52.534;13.398;2023-06-10T14:12:52;5.93;;;5.40;;
44720;SDS011;30450;52.534;13.398;2023-06-10T14:15:18;7.00;;;5.63;;
44720;SDS011;30450;52.534;13.398;2023-06-10T14:17:44;6.47;;;5.88;;
44720;SDS011;30450;52.534;13.398;2023-06-10T14:20:10;5.55;;;5.05;;
44720;SDS011;30450;52.534;13.398;2023-06-10T14:22:36;8.05;;;5.47;;
44720;SDS011;30450;52.534;13.398;2023-06-10T14:25:01;8.07;;;5.28;;
44720;SDS011;30450;52.534;13.398;2023-06-10T14:27:27;8.43;;;5.43;;
44720;SDS011;30450;52.534;13.398;2023-06-10T14:29:52;6.05;;;5.47;;
44720;SDS011;30450;52.534;13.398;2023-06-10T14:32:18;5.93;;;5.32;;
44720;SDS011;30450;52.534;13.398;2023-06-10T14:34:44;11.13;;;8.00;;
44720;SDS011;30450;52.534;13.398;2023-06-10T14:37:10;6.20;;;5.50;;
44720;SDS011;30450;52.534;13.398;2023-06-10T14:39:36;6.75;;;5.93;;
44720;SDS011;30450;52.534;13.398;2023-06-10T14:42:02;6.07;;;5.47;;
44720;SDS011;30450;52.534;13.398;2023-06-10T14:44:28;6.78;;;5.68;;